createdAt,value
2019-02-05T00:04:28.874Z,49.60
2019-02-05T00:09:30.548Z,86.47
2019-02-05T00:14:32.161Z,89.70
2019-02-05T00:19:33.836Z,109.43
2019-02-05T00:24:35.543Z,78.27
2019-02-05T00:29:37.307Z,116.57
2019-02-05T00:34:39.074Z,109.57
2019-02-05T00:39:41.097Z,115.67
2019-02-05T00:44:42.732Z,119.50
2019-02-05T00:49:44.417Z,116.90
2019-02-05T00:54:49.859Z,105.97
2019-02-05T00:59:51.464Z,102.67
2019-02-05T01:04:53.349Z,104.67
2019-02-05T01:09:54.994Z,104.53
2019-02-05T01:14:58.104Z,117.47
2019-02-05T01:20:00.313Z,126.10
2019-02-05T01:25:02.685Z,122.67
2019-02-05T01:30:10.977Z,140.40
2019-02-05T01:35:12.802Z,131.53
2019-02-05T01:40:23.715Z,149.17
2019-02-05T01:45:25.694Z,139.53
2019-02-05T01:50:28.282Z,144.40
2019-02-05T01:55:30.027Z,113.57
2019-02-05T02:00:33.497Z,110.80
2019-02-05T02:05:35.576Z,84.33
2019-02-05T02:10:37.195Z,82.77
2019-02-05T02:15:38.885Z,83.77
2019-02-05T02:20:40.547Z,98.43
2019-02-05T02:25:42.246Z,70.33
2019-02-05T02:30:44.051Z,81.33
2019-02-05T02:35:45.746Z,83.90
2019-02-05T02:40:49.975Z,83.37
2019-02-05T02:45:51.857Z,105.67
2019-02-05T02:50:54.143Z,79.03
2019-02-05T02:55:56.075Z,72.50
2019-02-05T03:00:58.369Z,87.03
2019-02-05T03:06:00.179Z,82.57
2019-02-05T03:11:01.914Z,75.93
2019-02-05T03:16:04.100Z,64.20
2019-02-05T03:21:06.967Z,74.87
2019-02-05T03:26:09.187Z,80.67
2019-02-05T03:31:10.962Z,105.20
2019-02-05T03:36:12.703Z,79.27
2019-02-05T03:41:14.509Z,90.90
2019-02-05T03:46:16.904Z,68.37
2019-02-05T03:51:21.581Z,56.40
2019-02-05T03:56:54.072Z,77.07
2019-02-05T04:02:11.368Z,62.70
2019-02-05T04:07:28.730Z,56.33
2019-02-05T04:12:43.182Z,63.77
2019-02-05T04:17:57.550Z,61.70
2019-02-05T04:23:28.898Z,52.37
2019-02-05T04:28:55.593Z,68.03
2019-02-05T04:34:10.318Z,68.97
2019-02-05T04:39:16.084Z,68.37
2019-02-05T04:44:37.152Z,66.07
2019-02-05T04:50:01.300Z,69.07
2019-02-05T04:55:27.874Z,69.20
2019-02-05T05:00:45.589Z,38.30
2019-02-05T05:06:12.636Z,44.73
2019-02-05T05:11:14.742Z,38.57
2019-02-05T05:16:16.647Z,47.43
2019-02-05T05:21:18.728Z,35.80
2019-02-05T05:26:20.475Z,38.57
2019-02-05T05:31:22.833Z,39.47
2019-02-05T05:36:24.893Z,40.50
2019-02-05T05:41:26.640Z,54.90
2019-02-05T05:46:30.973Z,50.03
2019-02-05T05:51:33.498Z,38.43
2019-02-05T05:56:35.478Z,61.83
2019-02-05T06:01:37.106Z,48.53
2019-02-05T06:06:38.775Z,68.40
2019-02-05T06:11:40.747Z,78.23
2019-02-05T06:16:42.370Z,72.37
2019-02-05T06:21:44.042Z,75.07
2019-02-05T06:26:45.749Z,110.00
2019-02-05T06:31:47.491Z,96.70
2019-02-05T06:36:49.242Z,77.27
2019-02-05T06:41:52.844Z,88.13
2019-02-05T06:46:54.641Z,105.03
2019-02-05T06:52:09.612Z,99.03
2019-02-05T06:57:11.709Z,81.83
2019-02-05T07:02:13.719Z,79.77
2019-02-05T07:07:15.364Z,62.03
2019-02-05T07:12:17.754Z,64.53
2019-02-05T07:17:19.783Z,60.47
2019-02-05T07:22:21.410Z,55.93
2019-02-05T07:27:23.189Z,79.70
2019-02-05T07:32:25.682Z,100.07
2019-02-05T07:37:27.557Z,109.80
2019-02-05T07:42:29.846Z,102.20
2019-02-05T07:47:32.763Z,73.90
2019-02-05T07:52:34.421Z,98.80
2019-02-05T07:57:36.202Z,130.60
2019-02-05T08:02:38.294Z,121.13
2019-02-05T08:07:40.260Z,98.63
2019-02-05T08:12:42.885Z,93.90
2019-02-05T08:17:45.353Z,72.43
2019-02-05T08:22:51.016Z,76.57
2019-02-05T08:28:08.834Z,87.27
2019-02-05T08:33:10.958Z,65.13
2019-02-05T08:38:14.460Z,55.47
2019-02-05T08:43:17.823Z,70.60
2019-02-05T08:48:19.795Z,66.23
2019-02-05T08:53:21.914Z,63.13
2019-02-05T08:58:31.167Z,71.43
2019-02-05T09:03:27.731Z,52.70
2019-02-05T09:08:29.492Z,47.07
2019-02-05T09:13:31.667Z,59.37
2019-02-05T09:18:33.617Z,69.40
2019-02-05T09:23:35.747Z,52.27
2019-02-05T09:28:37.786Z,37.27
2019-02-05T09:33:39.532Z,62.53
2019-02-05T09:38:41.320Z,71.43
2019-02-05T09:43:43.122Z,72.17
2019-02-05T09:48:45.718Z,82.80
2019-02-05T09:53:47.389Z,47.43
2019-02-05T09:58:49.303Z,42.93
2019-02-05T10:03:51.048Z,39.27
2019-02-05T10:08:52.822Z,48.27
2019-02-05T10:13:54.596Z,56.10
2019-02-05T10:18:58.629Z,45.80
2019-02-05T10:24:00.611Z,45.27
2019-02-05T10:29:02.393Z,70.00
2019-02-05T10:34:04.146Z,36.27
2019-02-05T10:39:07.511Z,38.77
2019-02-05T10:44:09.216Z,54.03
2019-02-05T10:49:11.039Z,57.37
2019-02-05T10:54:13.036Z,51.50
2019-02-05T10:59:14.944Z,46.53
2019-02-05T11:04:16.698Z,53.77
2019-02-05T11:09:18.657Z,30.87
2019-02-05T11:14:20.432Z,36.57
2019-02-05T11:19:22.077Z,54.83
2019-02-05T11:24:23.890Z,21.07
2019-02-05T11:29:25.632Z,28.77
2019-02-05T11:34:27.859Z,43.07
2019-02-05T11:39:29.830Z,55.47
2019-02-05T11:44:31.895Z,38.73
2019-02-05T11:49:35.435Z,39.60
2019-02-05T11:54:37.088Z,46.40
2019-02-05T11:59:39.304Z,38.97
2019-02-05T12:04:41.671Z,60.10
2019-02-05T12:09:43.448Z,42.30
2019-02-05T12:14:45.170Z,56.60
2019-02-05T12:19:48.863Z,49.87
2019-02-05T12:24:57.672Z,51.93
2019-02-05T12:29:59.888Z,40.30
2019-02-05T12:35:01.548Z,30.60
2019-02-05T12:40:07.111Z,34.33
2019-02-05T12:45:12.190Z,54.83
2019-02-05T12:50:20.375Z,56.57
2019-02-05T12:55:22.462Z,40.07
2019-02-05T13:00:56.693Z,47.83
2019-02-05T13:05:50.218Z,37.57
2019-02-05T13:10:51.981Z,44.70
2019-02-05T13:15:54.708Z,42.27
2019-02-05T13:20:57.089Z,43.53
2019-02-05T13:25:58.981Z,49.87
2019-02-05T13:31:07.596Z,42.77
2019-02-05T13:36:08.566Z,42.03
2019-02-05T13:41:10.343Z,41.43
2019-02-05T13:46:12.224Z,57.27
2019-02-05T13:51:14.101Z,29.13
2019-02-05T13:56:16.332Z,46.43
2019-02-05T14:01:20.362Z,39.90
2019-02-05T14:06:22.444Z,60.53
2019-02-05T14:11:25.045Z,48.23
2019-02-05T14:16:26.768Z,43.70
2019-02-05T14:21:28.649Z,43.57
2019-02-05T14:26:32.779Z,48.13
2019-02-05T14:31:34.537Z,44.00
2019-02-05T14:36:36.193Z,46.47
2019-02-05T14:41:38.234Z,51.47
2019-02-05T14:46:39.900Z,44.57
2019-02-05T14:51:41.995Z,47.43
2019-02-05T14:56:45.614Z,47.40
2019-02-05T15:01:47.476Z,42.33
2019-02-05T15:06:49.454Z,23.80
2019-02-05T15:11:51.497Z,37.53
2019-02-05T15:16:53.287Z,42.83
2019-02-05T15:21:55.310Z,39.33
2019-02-05T15:26:57.244Z,48.50
2019-02-05T15:31:59.172Z,48.20
2019-02-05T15:37:01.361Z,44.73
2019-02-05T15:42:03.527Z,37.17
2019-02-05T15:47:05.419Z,50.93
2019-02-05T15:52:07.363Z,54.37
2019-02-05T15:57:09.384Z,30.80
2019-02-05T16:02:11.502Z,55.77
2019-02-05T16:07:13.249Z,36.90
2019-02-05T16:12:24.675Z,57.17
2019-02-05T16:17:27.289Z,40.37
2019-02-05T16:22:28.932Z,43.80
2019-02-05T16:27:30.792Z,54.93
2019-02-05T16:32:32.577Z,47.67
2019-02-05T16:37:35.788Z,82.97
2019-02-05T16:42:38.496Z,66.40
2019-02-05T16:47:40.485Z,90.33
2019-02-05T16:52:43.205Z,53.00
2019-02-05T16:57:44.968Z,44.10
2019-02-05T17:02:47.062Z,71.53
2019-02-05T17:07:48.898Z,67.03
2019-02-05T17:12:51.120Z,81.07
2019-02-05T17:17:53.127Z,66.07
2019-02-05T17:22:55.229Z,83.73
2019-02-05T17:28:02.351Z,69.53
2019-02-05T17:33:06.102Z,92.57
2019-02-05T17:38:08.860Z,62.70
2019-02-05T17:43:11.605Z,77.30
2019-02-05T17:48:15.185Z,68.60
2019-02-05T17:53:17.694Z,92.63
2019-02-05T17:58:20.093Z,81.83
2019-02-05T18:03:22.661Z,82.00
2019-02-05T18:08:25.324Z,71.43
2019-02-05T18:13:27.655Z,68.10
2019-02-05T18:18:30.409Z,70.53
2019-02-05T18:23:32.506Z,64.27
2019-02-05T18:28:34.716Z,79.77
2019-02-05T18:33:36.656Z,65.50
2019-02-05T18:38:38.753Z,79.27
2019-02-05T18:43:42.773Z,50.27
2019-02-05T18:48:45.184Z,65.90
2019-02-05T18:53:47.408Z,40.50
2019-02-05T18:58:53.392Z,92.27
2019-02-05T19:03:55.788Z,66.70
2019-02-05T19:08:57.730Z,48.93
2019-02-05T19:13:59.994Z,77.17
2019-02-05T19:19:14.264Z,70.47
2019-02-05T19:24:09.141Z,71.73
2019-02-05T19:29:18.962Z,36.47
2019-02-05T19:34:16.946Z,74.53
2019-02-05T19:39:23.162Z,75.67
2019-02-05T19:44:25.464Z,42.50
2019-02-05T19:49:28.495Z,60.60
2019-02-05T19:54:34.409Z,66.67
2019-02-05T19:59:38.622Z,62.97
2019-02-05T20:04:42.655Z,77.03
2019-02-05T20:09:44.945Z,64.40
2019-02-05T20:14:47.273Z,59.93
2019-02-05T20:19:49.868Z,42.57
2019-02-05T20:24:58.647Z,63.57
2019-02-05T20:30:01.412Z,51.40
2019-02-05T20:35:05.378Z,63.13
2019-02-05T20:40:13.678Z,50.90
2019-02-05T20:45:18.913Z,76.60
2019-02-05T20:50:21.223Z,36.30
2019-02-05T20:55:24.407Z,64.90
2019-02-05T21:00:29.232Z,15.57
2019-02-05T21:05:31.060Z,51.70
2019-02-05T21:10:33.269Z,41.83
2019-02-05T21:15:34.924Z,25.43
2019-02-05T21:20:36.673Z,21.13
2019-02-05T21:25:38.438Z,26.83
2019-02-05T21:30:40.169Z,21.50
2019-02-05T21:35:41.967Z,26.27
2019-02-05T21:40:43.719Z,82.43
2019-02-05T21:45:45.575Z,20.33
2019-02-05T21:50:47.370Z,81.83
2019-02-05T21:55:49.168Z,114.10
2019-02-05T22:00:50.971Z,101.13
2019-02-05T22:05:53.043Z,46.20
2019-02-05T22:10:54.922Z,40.37
2019-02-05T22:15:56.787Z,62.40
2019-02-05T22:20:58.488Z,70.10
2019-02-05T22:26:00.201Z,79.90
2019-02-05T22:31:01.865Z,84.53
2019-02-05T22:36:03.875Z,144.77
2019-02-05T22:41:05.573Z,169.07
2019-02-05T22:46:07.689Z,128.00
2019-02-05T22:51:09.792Z,171.33
2019-02-05T22:56:11.879Z,144.13
2019-02-05T23:01:33.317Z,132.57
2019-02-05T23:06:42.321Z,187.70
2019-02-05T23:12:17.112Z,199.30
2019-02-05T23:17:19.221Z,150.23
2019-02-05T23:22:20.997Z,158.17
2019-02-05T23:27:22.757Z,168.13
2019-02-05T23:32:25.623Z,142.10
2019-02-05T23:37:27.364Z,148.90
2019-02-05T23:42:29.276Z,146.50
2019-02-05T23:47:31.099Z,165.40
2019-02-05T23:52:32.895Z,175.83
2019-02-05T23:57:35.299Z,189.17
